sensor_id;sensor_type;location;lat;lon;timestamp;pressure;altitude;pressure_sealevel;temperature;humidity
69460;BME280;57182;55.712;37.612;2022-08-21T06:26:57;100793.19;;;27.10;26.17
69460;BME280;57182;55.712;37.612;2022-08-21T06:29:41;100803.81;;;27.42;25.79
69460;BME280;57182;55.712;37.612;2022-08-21T06:32:57;100792.97;;;27.19;25.15
69460;BME280;57182;55.712;37.612;2022-08-21T06:36:11;100802.47;;;27.46;25.86
69460;BME280;57182;55.712;37.612;2022-08-21T06:39:16;100788.34;;;28.12;25.20
69460;BME280;57182;55.712;37.612;2022-08-21T06:42:03;100786.13;;;29.11;23.99
69460;BME280;57182;55.712;37.612;2022-08-21T06:44:42;100796.53;;;29.79;23.82
69460;BME280;57182;55.712;37.612;2022-08-21T06:47:20;100777.19;;;30.31;23.13
69460;BME280;57182;55.712;37.612;2022-08-21T06:50:00;100777.09;;;30.39;22.85
69460;BME280;57182;55.712;37.612;2022-08-21T06:53:00;100803.66;;;29.66;22.22
69460;BME280;57182;55.712;37.612;2022-08-21T06:55:42;100794.06;;;29.49;23.07
69460;BME280;57182;55.712;37.612;2022-08-21T06:58:30;100777.97;;;29.41;22.88
69460;BME280;57182;55.712;37.612;2022-08-21T07:01:01;100779.09;;;29.32;23.50
69460;BME280;57182;55.712;37.612;2022-08-21T07:03:43;100782.94;;;29.37;23.27
69460;BME280;57182;55.712;37.612;2022-08-21T07:06:24;100791.91;;;29.95;22.95
69460;BME280;57182;55.712;37.612;2022-08-21T07:08:57;100796.66;;;30.63;22.75
69460;BME280;57182;55.712;37.612;2022-08-21T07:11:41;100774.00;;;31.11;21.77
69460;BME280;57182;55.712;37.612;2022-08-21T07:14:26;100769.63;;;30.82;20.71
69460;BME280;57182;55.712;37.612;2022-08-21T07:16:57;100767.09;;;31.15;21.40
69460;BME280;57182;55.712;37.612;2022-08-21T07:19:55;100765.25;;;31.16;21.03
69460;BME280;57182;55.712;37.612;2022-08-21T07:23:04;100763.13;;;31.04;21.35
69460;BME280;57182;55.712;37.612;2022-08-21T07:25:54;100776.25;;;31.01;20.66
69460;BME280;57182;55.712;37.612;2022-08-21T07:29:47;100785.81;;;29.92;21.35
69460;BME280;57182;55.712;37.612;2022-08-21T07:32:33;100758.53;;;29.31;22.26
69460;BME280;57182;55.712;37.612;2022-08-21T07:35:04;100773.97;;;28.34;23.17
69460;BME280;57182;55.712;37.612;2022-08-21T07:38:13;100762.91;;;27.30;23.90
69460;BME280;57182;55.712;37.612;2022-08-21T07:41:39;100787.50;;;26.97;24.54
69460;BME280;57182;55.712;37.612;2022-08-21T07:44:37;100783.69;;;27.22;24.87
69460;BME280;57182;55.712;37.612;2022-08-21T07:47:23;100764.22;;;27.65;24.57
69460;BME280;57182;55.712;37.612;2022-08-21T07:50:11;100752.50;;;27.95;23.92
69460;BME280;57182;55.712;37.612;2022-08-21T07:52:45;100786.81;;;28.32;23.60
69460;BME280;57182;55.712;37.612;2022-08-21T07:55:22;100775.03;;;29.06;23.15
69460;BME280;57182;55.712;37.612;2022-08-21T07:57:54;100768.56;;;29.37;22.45
69460;BME280;57182;55.712;37.612;2022-08-21T08:00:23;100754.50;;;30.05;22.42
69460;BME280;57182;55.712;37.612;2022-08-21T08:02:56;100771.78;;;30.31;21.77
69460;BME280;57182;55.712;37.612;2022-08-21T08:05:27;100751.19;;;30.09;21.91
69460;BME280;57182;55.712;37.612;2022-08-21T08:07:58;100751.19;;;30.09;21.82
69460;BME280;57182;55.712;37.612;2022-08-21T08:10:26;100747.09;;;30.75;20.66
69460;BME280;57182;55.712;37.612;2022-08-21T08:12:54;100726.28;;;31.36;20.18
69460;BME280;57182;55.712;37.612;2022-08-21T08:15:25;100736.63;;;32.13;19.53
69460;BME280;57182;55.712;37.612;2022-08-21T08:17:53;100728.66;;;32.44;20.25
69460;BME280;57182;55.712;37.612;2022-08-21T08:20:26;100728.25;;;32.47;19.19
69460;BME280;57182;55.712;37.612;2022-08-21T08:22:58;100727.66;;;33.03;19.18
69460;BME280;57182;55.712;37.612;2022-08-21T08:25:28;100721.50;;;32.69;19.24
69460;BME280;57182;55.712;37.612;2022-08-21T08:28:04;100727.25;;;32.09;19.39
69460;BME280;57182;55.712;37.612;2022-08-21T08:30:44;100707.28;;;31.30;19.58
69460;BME280;57182;55.712;37.612;2022-08-21T08:33:13;100734.69;;;30.94;19.79
69460;BME280;57182;55.712;37.612;2022-08-21T08:35:44;100704.38;;;30.84;19.49
69460;BME280;57182;55.712;37.612;2022-08-21T08:38:18;100705.19;;;31.32;19.51
69460;BME280;57182;55.712;37.612;2022-08-21T08:43:24;100684.75;;;32.27;18.27
69460;BME280;57182;55.712;37.612;2022-08-21T08:45:56;100709.81;;;32.56;18.21
69460;BME280;57182;55.712;37.612;2022-08-21T08:48:38;100712.78;;;32.54;17.65
69460;BME280;57182;55.712;37.612;2022-08-21T08:54:17;100697.25;;;32.61;17.21
69460;BME280;57182;55.712;37.612;2022-08-21T08:56:52;100690.56;;;32.70;17.21
69460;BME280;57182;55.712;37.612;2022-08-21T08:59:42;100699.00;;;32.23;17.38
69460;BME280;57182;55.712;37.612;2022-08-21T09:02:16;100730.72;;;31.50;18.28
69460;BME280;57182;55.712;37.612;2022-08-21T09:04:47;100707.00;;;31.18;18.36
69460;BME280;57182;55.712;37.612;2022-08-21T09:16:01;100730.31;;;29.40;19.44
69460;BME280;57182;55.712;37.612;2022-08-21T09:20:01;100730.09;;;28.18;20.87
69460;BME280;57182;55.712;37.612;2022-08-21T09:27:57;100724.94;;;27.63;21.37
69460;BME280;57182;55.712;37.612;2022-08-21T09:31:41;100701.44;;;27.71;21.19
69460;BME280;57182;55.712;37.612;2022-08-21T09:35:29;100729.31;;;28.24;20.55
69460;BME280;57182;55.712;37.612;2022-08-21T09:42:52;100708.34;;;30.47;18.83
69460;BME280;57182;55.712;37.612;2022-08-21T09:46:23;100717.03;;;30.36;19.47
69460;BME280;57182;55.712;37.612;2022-08-21T09:49:54;100699.53;;;29.83;19.43
69460;BME280;57182;55.712;37.612;2022-08-21T09:53:33;100684.53;;;28.58;20.49
69460;BME280;57182;55.712;37.612;2022-08-21T10:03:26;100714.06;;;27.93;20.89
69460;BME280;57182;55.712;37.612;2022-08-21T10:06:01;100688.09;;;27.55;21.47
69460;BME280;57182;55.712;37.612;2022-08-21T10:08:39;100698.00;;;27.32;21.71
69460;BME280;57182;55.712;37.612;2022-08-21T10:19:44;100713.13;;;26.71;23.16
69460;BME280;57182;55.712;37.612;2022-08-21T10:26:41;100711.94;;;26.74;23.04
69460;BME280;57182;55.712;37.612;2022-08-21T10:32:54;100704.53;;;26.21;22.82
69460;BME280;57182;55.712;37.612;2022-08-21T10:35:41;100685.38;;;26.16;23.02
69460;BME280;57182;55.712;37.612;2022-08-21T10:48:43;100675.28;;;26.18;23.91
69460;BME280;57182;55.712;37.612;2022-08-21T10:51:04;100675.28;;;26.18;23.57
69460;BME280;57182;55.712;37.612;2022-08-21T10:54:34;100672.16;;;26.37;23.62
69460;BME280;57182;55.712;37.612;2022-08-21T10:57:42;100684.25;;;26.57;23.46
69460;BME280;57182;55.712;37.612;2022-08-21T11:00:32;100665.88;;;26.53;23.07
69460;BME280;57182;55.712;37.612;2022-08-21T11:06:23;100679.25;;;26.30;23.00
69460;BME280;57182;55.712;37.612;2022-08-21T11:17:16;100638.78;;;25.99;23.01
69460;BME280;57182;55.712;37.612;2022-08-21T11:28:45;100653.75;;;26.65;23.02
69460;BME280;57182;55.712;37.612;2022-08-21T11:36:51;100671.03;;;26.70;22.71
69460;BME280;57182;55.712;37.612;2022-08-21T11:42:46;100664.16;;;26.29;23.71
69460;BME280;57182;55.712;37.612;2022-08-21T11:45:32;100635.41;;;26.13;23.56
69460;BME280;57182;55.712;37.612;2022-08-21T11:50:48;100676.91;;;26.35;23.82
69460;BME280;57182;55.712;37.612;2022-08-21T11:56:42;100642.13;;;26.01;24.27
69460;BME280;57182;55.712;37.612;2022-08-21T11:59:56;100646.50;;;26.02;24.43
69460;BME280;57182;55.712;37.612;2022-08-21T12:02:58;100658.63;;;25.98;24.61
69460;BME280;57182;55.712;37.612;2022-08-21T12:05:39;100633.94;;;25.79;24.59
69460;BME280;57182;55.712;37.612;2022-08-21T12:08:36;100635.78;;;25.78;24.79
69460;BME280;57182;55.712;37.612;2022-08-21T12:13:54;100651.38;;;26.07;24.53
69460;BME280;57182;55.712;37.612;2022-08-21T12:16:35;100619.59;;;25.94;24.66
69460;BME280;57182;55.712;37.612;2022-08-21T12:22:09;100652.22;;;26.15;24.34
69460;BME280;57182;55.712;37.612;2022-08-21T12:29:16;100654.94;;;26.62;24.46
69460;BME280;57182;55.712;37.612;2022-08-21T12:31:53;100632.59;;;26.46;23.91
69460;BME280;57182;55.712;37.612;2022-08-21T12:34:48;100661.69;;;26.50;23.95
69460;BME280;57182;55.712;37.612;2022-08-21T12:37:47;100653.47;;;26.44;24.29
69460;BME280;57182;55.712;37.612;2022-08-21T12:43:41;100643.72;;;26.43;24.08
69460;BME280;57182;55.712;37.612;2022-08-21T12:46:18;100663.19;;;26.53;23.63
69460;BME280;57182;55.712;37.612;2022-08-21T12:48:57;100644.69;;;26.50;24.29
69460;BME280;57182;55.712;37.612;2022-08-21T12:51:29;100648.88;;;26.52;24.01
69460;BME280;57182;55.712;37.612;2022-08-21T12:54:07;100620.66;;;26.40;23.93
69460;BME280;57182;55.712;37.612;2022-08-21T12:56:35;100655.47;;;26.50;23.88
69460;BME280;57182;55.712;37.612;2022-08-21T12:59:10;100624.97;;;26.18;24.13
69460;BME280;57182;55.712;37.612;2022-08-21T13:01:45;100611.19;;;26.05;24.27
69460;BME280;57182;55.712;37.612;2022-08-21T13:04:32;100639.78;;;26.14;24.08
69460;BME280;57182;55.712;37.612;2022-08-21T13:07:01;100625.13;;;26.17;24.36
69460;BME280;57182;55.712;37.612;2022-08-21T13:09:32;100617.53;;;26.29;24.46
69460;BME280;57182;55.712;37.612;2022-08-21T13:11:59;100609.13;;;26.32;24.28
69460;BME280;57182;55.712;37.612;2022-08-21T13:14:36;100639.19;;;26.35;24.20
69460;BME280;57182;55.712;37.612;2022-08-21T13:17:12;100614.13;;;26.35;24.16
69460;BME280;57182;55.712;37.612;2022-08-21T13:22:46;100636.91;;;26.24;24.78
69460;BME280;57182;55.712;37.612;2022-08-21T13:25:16;100613.03;;;26.13;24.85
69460;BME280;57182;55.712;37.612;2022-08-21T13:28:05;100617.75;;;26.03;24.80
69460;BME280;57182;55.712;37.612;2022-08-21T13:30:33;100646.31;;;26.28;24.99
69460;BME280;57182;55.712;37.612;2022-08-21T13:33:05;100618.56;;;26.19;24.74
69460;BME280;57182;55.712;37.612;2022-08-21T13:36:07;100611.34;;;26.04;24.27
69460;BME280;57182;55.712;37.612;2022-08-21T13:38:53;100630.03;;;26.13;24.12
69460;BME280;57182;55.712;37.612;2022-08-21T13:41:25;100614.41;;;26.01;23.97
69460;BME280;57182;55.712;37.612;2022-08-21T13:44:41;100613.44;;;25.86;24.34
69460;BME280;57182;55.712;37.612;2022-08-21T13:47:11;100627.00;;;26.00;24.81
69460;BME280;57182;55.712;37.612;2022-08-21T13:49:42;100625.28;;;26.07;24.35
69460;BME280;57182;55.712;37.612;2022-08-21T13:52:18;100603.25;;;26.04;24.28
69460;BME280;57182;55.712;37.612;2022-08-21T13:54:59;100596.53;;;26.24;24.03
69460;BME280;57182;55.712;37.612;2022-08-21T13:58:23;100617.81;;;26.42;24.10
69460;BME280;57182;55.712;37.612;2022-08-21T14:06:25;100609.66;;;26.19;23.62
69460;BME280;57182;55.712;37.612;2022-08-21T14:10:36;100630.34;;;26.18;23.50
69460;BME280;57182;55.712;37.612;2022-08-21T14:23:08;100607.00;;;25.95;23.06
69460;BME280;57182;55.712;37.612;2022-08-21T14:41:33;100584.72;;;25.62;24.03
69460;BME280;57182;55.712;37.612;2022-08-21T14:48:00;100580.19;;;25.63;24.30
69460;BME280;57182;55.712;37.612;2022-08-21T14:50:36;100607.22;;;25.77;24.54
69460;BME280;57182;55.712;37.612;2022-08-21T14:53:07;100586.22;;;25.73;24.44
69460;BME280;57182;55.712;37.612;2022-08-21T15:00:13;100589.25;;;25.53;24.87
69460;BME280;57182;55.712;37.612;2022-08-21T15:03:43;100585.88;;;25.43;25.45
69460;BME280;57182;55.712;37.612;2022-08-21T15:06:16;100592.63;;;25.47;25.56
69460;BME280;57182;55.712;37.612;2022-08-21T15:20:19;100590.59;;;25.33;25.58
69460;BME280;57182;55.712;37.612;2022-08-21T15:22:57;100583.19;;;25.27;25.38
69460;BME280;57182;55.712;37.612;2022-08-21T15:25:44;100593.28;;;25.41;25.76
69460;BME280;57182;55.712;37.612;2022-08-21T15:28:22;100582.34;;;25.35;25.52
69460;BME280;57182;55.712;37.612;2022-08-21T15:31:16;100587.56;;;25.36;25.59
69460;BME280;57182;55.712;37.612;2022-08-21T15:33:55;100599.31;;;25.35;25.46
69460;BME280;57182;55.712;37.612;2022-08-21T15:36:25;100586.72;;;25.28;25.60
69460;BME280;57182;55.712;37.612;2022-08-21T15:39:00;100600.66;;;25.31;25.75
69460;BME280;57182;55.712;37.612;2022-08-21T15:41:32;100591.41;;;25.26;25.72
69460;BME280;57182;55.712;37.612;2022-08-21T15:44:29;100591.59;;;25.08;25.86
69460;BME280;57182;55.712;37.612;2022-08-21T15:47:43;100589.75;;;25.17;25.76
69460;BME280;57182;55.712;37.612;2022-08-21T15:50:23;100582.84;;;25.06;26.04
69460;BME280;57182;55.712;37.612;2022-08-21T15:53:03;100573.44;;;25.02;26.02
69460;BME280;57182;55.712;37.612;2022-08-21T15:56:18;100602.00;;;25.11;26.42
69460;BME280;57182;55.712;37.612;2022-08-21T15:59:22;100585.53;;;24.98;26.26
69460;BME280;57182;55.712;37.612;2022-08-21T16:07:25;100559.28;;;24.76;26.35
69460;BME280;57182;55.712;37.612;2022-08-21T16:10:43;100596.25;;;24.90;27.06
69460;BME280;57182;55.712;37.612;2022-08-21T16:14:34;100591.38;;;24.85;26.90
69460;BME280;57182;55.712;37.612;2022-08-21T16:28:33;100554.84;;;24.51;27.19
69460;BME280;57182;55.712;37.612;2022-08-21T16:31:20;100585.78;;;24.63;27.60
69460;BME280;57182;55.712;37.612;2022-08-21T16:34:13;100565.59;;;24.51;27.16
69460;BME280;57182;55.712;37.612;2022-08-21T16:38:03;100552.81;;;24.36;27.72
69460;BME280;57182;55.712;37.612;2022-08-21T16:40:56;100584.91;;;24.54;27.29
69460;BME280;57182;55.712;37.612;2022-08-21T16:47:58;100540.22;;;24.37;27.93
69460;BME280;57182;55.712;37.612;2022-08-21T16:50:56;100563.72;;;24.35;27.79
69460;BME280;57182;55.712;37.612;2022-08-21T16:53:27;100583.69;;;24.49;28.29
69460;BME280;57182;55.712;37.612;2022-08-21T16:56:12;100548.41;;;24.27;28.79
69460;BME280;57182;55.712;37.612;2022-08-21T16:58:50;100568.91;;;24.36;28.90
69460;BME280;57182;55.712;37.612;2022-08-21T17:01:29;100570.91;;;24.34;29.04
69460;BME280;57182;55.712;37.612;2022-08-21T17:04:01;100554.44;;;24.21;29.25
69460;BME280;57182;55.712;37.612;2022-08-21T17:06:32;100561.31;;;24.24;29.15
69460;BME280;57182;55.712;37.612;2022-08-21T17:09:06;100580.94;;;24.24;29.11
69460;BME280;57182;55.712;37.612;2022-08-21T17:11:45;100565.78;;;24.15;29.77
69460;BME280;57182;55.712;37.612;2022-08-21T17:14:22;100577.47;;;24.06;29.67
69460;BME280;57182;55.712;37.612;2022-08-21T17:26:42;100581.81;;;24.07;29.94
69460;BME280;57182;55.712;37.612;2022-08-21T17:29:52;100561.81;;;23.94;30.27
69460;BME280;57182;55.712;37.612;2022-08-21T17:33:34;100553.50;;;23.79;29.57
69460;BME280;57182;55.712;37.612;2022-08-21T17:37:13;100575.06;;;23.95;29.68
69460;BME280;57182;55.712;37.612;2022-08-21T17:40:33;100557.09;;;23.88;29.97
69460;BME280;57182;55.712;37.612;2022-08-21T17:43:14;100554.34;;;23.79;29.42
69460;BME280;57182;55.712;37.612;2022-08-21T17:46:07;100573.72;;;23.91;29.84
69460;BME280;57182;55.712;37.612;2022-08-21T19:37:20;100611.25;;;22.77;32.48
69460;BME280;57182;55.712;37.612;2022-08-21T19:58:02;100582.41;;;22.44;32.98
69460;BME280;57182;55.712;37.612;2022-08-21T20:11:03;100611.84;;;22.44;33.14
69460;BME280;57182;55.712;37.612;2022-08-21T20:19:28;100597.84;;;22.32;33.50
69460;BME280;57182;55.712;37.612;2022-08-21T20:59:01;100625.16;;;21.80;35.61
69460;BME280;57182;55.712;37.612;2022-08-21T21:03:23;100617.59;;;21.66;34.92
69460;BME280;57182;55.712;37.612;2022-08-21T21:11:27;100582.34;;;21.53;35.16
69460;BME280;57182;55.712;37.612;2022-08-21T21:14:13;100591.31;;;21.52;35.29
69460;BME280;57182;55.712;37.612;2022-08-21T21:17:02;100610.59;;;21.55;35.27
69460;BME280;57182;55.712;37.612;2022-08-21T21:19:47;100591.34;;;21.42;35.26
69460;BME280;57182;55.712;37.612;2022-08-21T21:23:47;100579.81;;;21.42;35.51
69460;BME280;57182;55.712;37.612;2022-08-21T21:26:43;100615.94;;;21.55;35.89
69460;BME280;57182;55.712;37.612;2022-08-21T21:29:44;100628.44;;;21.55;35.47
69460;BME280;57182;55.712;37.612;2022-08-21T21:32:35;100615.53;;;21.50;36.26
69460;BME280;57182;55.712;37.612;2022-08-21T21:36:37;100636.75;;;21.52;36.42
69460;BME280;57182;55.712;37.612;2022-08-21T23:18:13;100626.50;;;21.38;36.95
